Time,TemperatureF,DewpointF,PressureIn,WindDirection,WindDirectionDegrees,WindSpeedMPH,WindSpeedGustMPH,Humidity,HourlyPrecipIn,Conditions,Clouds,dailyrainin,SoftwareType,DateUTC
2013-02-13 00:00:00,47.7,39.5,29.94,SSE,151,0.0,0.0,73,0.00,,OVC100,0.00,VWS V14.01,2013-02-13 05:00:00,
2013-02-13 00:05:00,47.7,39.5,29.95,SSE,152,0.0,0.0,73,0.00,,OVC100,0.00,VWS V14.01,2013-02-13 05:05:00,
2013-02-13 00:10:00,47.9,40.0,29.94,ESE,105,0.0,2.0,74,0.00,,OVC100,0.00,VWS V14.01,2013-02-13 05:10:00,
2013-02-13 00:15:00,47.8,40.6,29.94,ESE,105,0.0,0.0,76,0.00,,OVC100,0.00,VWS V14.01,2013-02-13 05:15:00,
2013-02-13 00:20:00,47.9,40.0,29.95,WSW,255,0.0,4.0,74,0.00,,OVC100,0.00,VWS V14.01,2013-02-13 05:20:00,
2013-02-13 00:25:00,47.9,40.7,29.95,WSW,255,0.0,0.0,76,0.00,,OVC100,0.00,VWS V14.01,2013-02-13 05:25:00,
2013-02-13 00:35:00,47.8,40.6,29.94,WSW,255,0.0,0.0,76,0.00,,OVC100,0.00,VWS V14.01,2013-02-13 05:35:00,
2013-02-13 00:40:00,47.7,40.8,29.95,WSW,255,0.0,0.0,77,0.00,,OVC100,0.00,VWS V14.01,2013-02-13 05:40:00,
2013-02-13 00:45:00,47.7,40.8,29.94,WSW,255,0.0,1.0,77,0.00,,OVC100,0.00,VWS V14.01,2013-02-13 05:45:00,
2013-02-13 00:50:00,47.5,40.7,29.93,WSW,255,0.0,1.0,77,0.00,,OVC100,0.00,VWS V14.01,2013-02-13 05:50:00,
2013-02-13 00:55:00,47.3,40.8,29.92,ESE,108,0.0,1.0,78,0.00,,OVC100,0.00,VWS V14.01,2013-02-13 05:55:00,
2013-02-13 01:00:00,47.1,40.6,29.92,ESE,105,0.0,1.0,78,0.00,,-RA,0.00,VWS V14.01,2013-02-13 06:00:00,
2013-02-13 01:10:00,46.9,40.4,29.91,ESE,105,0.0,0.0,78,0.00,,-RA,0.00,VWS V14.01,2013-02-13 06:10:00,
2013-02-13 01:15:00,46.8,41.3,29.89,East,82,0.0,1.0,81,0.00,,-RA,0.00,VWS V14.01,2013-02-13 06:15:00,
2013-02-13 01:20:00,46.7,41.5,29.90,East,82,0.0,1.0,82,0.00,,-RA,0.00,VWS V14.01,2013-02-13 06:20:00,
2013-02-13 01:25:00,46.8,40.0,29.91,East,82,0.0,0.0,77,0.00,,-RA,0.00,VWS V14.01,2013-02-13 06:25:00,
2013-02-13 01:30:00,46.9,40.4,29.90,East,82,0.0,1.0,78,0.00,,-RA,0.00,VWS V14.01,2013-02-13 06:30:00,
2013-02-13 01:35:00,46.8,41.0,29.90,East,83,1.0,1.0,80,0.00,,-RA,0.00,VWS V14.01,2013-02-13 06:35:00,
2013-02-13 01:45:00,46.9,40.7,29.89,SSW,203,0.0,0.0,79,0.00,,-RA,0.00,VWS V14.01,2013-02-13 06:45:00,
2013-02-13 01:50:00,46.8,40.6,29.90,WSW,239,0.0,1.0,79,0.00,,-RA,0.00,VWS V14.01,2013-02-13 06:50:00,
2013-02-13 02:00:00,46.9,40.4,29.89,WSW,238,0.0,0.0,78,0.00,,OVC100,0.00,VWS V14.01,2013-02-13 07:00:00,
2013-02-13 02:05:00,46.8,40.0,29.88,ESE,121,0.0,1.0,77,0.00,,OVC100,0.00,VWS V14.01,2013-02-13 07:05:00,
2013-02-13 02:10:00,47.0,40.8,29.88,ESE,112,0.0,1.0,79,0.00,,OVC100,0.00,VWS V14.01,2013-02-13 07:10:00,
2013-02-13 02:20:00,46.7,41.8,29.85,ESE,112,0.0,1.0,83,0.00,,OVC100,0.00,VWS V14.01,2013-02-13 07:20:00,
2013-02-13 02:25:00,46.4,41.5,29.85,ESE,112,0.0,0.0,83,0.00,,OVC100,0.00,VWS V14.01,2013-02-13 07:25:00,
2013-02-13 02:30:00,46.3,42.0,29.85,ESE,112,0.0,1.0,85,0.00,,OVC100,0.00,VWS V14.01,2013-02-13 07:30:00,
2013-02-13 02:35:00,46.3,42.0,29.86,ESE,112,0.0,1.0,85,0.00,,OVC100,0.00,VWS V14.01,2013-02-13 07:35:00,
2013-02-13 02:45:00,46.4,40.6,29.86,ESE,112,0.0,1.0,80,0.00,,OVC100,0.00,VWS V14.01,2013-02-13 07:45:00,
2013-02-13 02:50:00,46.6,39.5,29.87,ESE,112,0.0,0.0,76,0.00,,OVC100,0.00,VWS V14.01,2013-02-13 07:50:00,
2013-02-13 02:55:00,46.9,40.1,29.87,ESE,112,0.0,1.0,77,0.00,,OVC100,0.00,VWS V14.01,2013-02-13 07:55:00,
2013-02-13 03:00:00,46.9,41.7,29.86,ESE,111,0.0,1.0,82,0.00,,-RA,0.00,VWS V14.01,2013-02-13 08:00:00,
2013-02-13 03:10:00,46.8,41.3,29.87,ESE,111,0.0,0.0,81,0.00,,-RA,0.00,VWS V14.01,2013-02-13 08:10:00,
2013-02-13 03:15:00,46.7,41.8,29.88,SW,233,0.0,1.0,83,0.00,,-RA,0.00,VWS V14.01,2013-02-13 08:15:00,
2013-02-13 03:25:00,46.0,42.0,29.87,WSW,243,0.0,0.0,86,0.00,,-RA,0.00,VWS V14.01,2013-02-13 08:25:00,
2013-02-13 03:30:00,45.7,42.1,29.87,WSW,243,0.0,0.0,87,0.00,,-RA,0.00,VWS V14.01,2013-02-13 08:30:00,
2013-02-13 03:35:00,45.5,42.7,29.86,SE,132,0.0,0.0,90,0.00,,-RA,0.00,VWS V14.01,2013-02-13 08:35:00,
2013-02-13 03:40:00,45.1,42.6,29.86,ESE,116,1.0,2.0,91,0.00,,-RA,0.00,VWS V14.01,2013-02-13 08:40:00,
2013-02-13 03:45:00,45.0,42.5,29.85,ESE,106,0.0,2.0,91,0.00,,-RA,0.00,VWS V14.01,2013-02-13 08:45:00,
2013-02-13 03:55:00,44.9,43.0,29.85,East,94,0.0,1.0,93,0.00,,-RA,0.00,VWS V14.01,2013-02-13 08:55:00,
2013-02-13 04:00:00,44.8,42.6,29.84,East,95,0.0,1.0,92,0.00,,-RA,0.00,VWS V14.01,2013-02-13 09:00:00,
2013-02-13 04:05:00,44.8,42.6,29.84,East,95,0.0,0.0,92,0.01,,-RA,0.01,VWS V14.01,2013-02-13 09:05:00,
2013-02-13 04:15:00,44.8,42.9,29.84,East,95,0.0,0.0,93,0.01,,-RA,0.01,VWS V14.01,2013-02-13 09:15:00,
2013-02-13 04:25:00,44.8,43.2,29.83,East,95,0.0,0.0,94,0.01,,-RA,0.01,VWS V14.01,2013-02-13 09:25:00,
2013-02-13 04:30:00,44.7,42.8,29.83,East,95,0.0,0.0,93,0.01,,-RA,0.01,VWS V14.01,2013-02-13 09:30:00,
2013-02-13 04:35:00,44.8,43.2,29.82,East,95,0.0,0.0,94,0.01,,-RA,0.01,VWS V14.01,2013-02-13 09:35:00,
2013-02-13 04:40:00,44.8,43.2,29.82,East,95,0.0,0.0,94,0.01,,-RA,0.01,VWS V14.01,2013-02-13 09:40:00,
2013-02-13 04:50:00,44.6,43.0,29.82,East,95,0.0,1.0,94,0.01,,-RA,0.01,VWS V14.01,2013-02-13 09:50:00,
2013-02-13 05:00:00,44.6,43.0,29.82,East,95,0.0,1.0,94,0.02,,-RA,0.02,VWS V14.01,2013-02-13 10:00:00,
2013-02-13 05:10:00,44.6,43.0,29.83,East,95,0.0,0.0,94,0.02,,-RA,0.03,VWS V14.01,2013-02-13 10:10:00,
2013-02-13 05:15:00,44.6,43.3,29.83,WSW,240,0.0,1.0,95,0.03,,-RA,0.04,VWS V14.01,2013-02-13 10:15:00,
2013-02-13 05:25:00,44.5,43.2,29.83,WSW,242,0.0,0.0,95,0.08,,-RA,0.09,VWS V14.01,2013-02-13 10:25:00,
2013-02-13 05:30:00,44.6,43.3,29.83,WSW,242,0.0,1.0,95,0.09,,-RA,0.10,VWS V14.01,2013-02-13 10:30:00,
2013-02-13 05:35:00,44.6,43.3,29.82,WSW,242,0.0,1.0,95,0.09,,-RA,0.10,VWS V14.01,2013-02-13 10:35:00,
2013-02-13 05:45:00,44.5,43.2,29.83,WSW,245,0.0,1.0,95,0.10,,-RA,0.11,VWS V14.01,2013-02-13 10:45:00,
2013-02-13 05:50:00,44.6,43.3,29.81,WSW,245,0.0,0.0,95,0.11,,-RA,0.12,VWS V14.01,2013-02-13 10:50:00,
2013-02-13 05:55:00,44.6,43.3,29.83,WSW,245,0.0,1.0,95,0.11,,-RA,0.12,VWS V14.01,2013-02-13 10:55:00,
2013-02-13 06:00:00,44.6,43.3,29.83,WSW,245,0.0,0.0,95,0.10,,-RA,0.12,VWS V14.01,2013-02-13 11:00:00,
2013-02-13 06:05:00,44.6,43.3,29.83,WSW,245,0.0,0.0,95,0.11,,-RA,0.13,VWS V14.01,2013-02-13 11:05:00,
2013-02-13 06:10:00,44.6,43.3,29.82,South,172,0.0,1.0,95,0.12,,-RA,0.14,VWS V14.01,2013-02-13 11:10:00,
2013-02-13 06:15:00,44.6,43.3,29.83,SSW,195,0.0,0.0,95,0.11,,-RA,0.14,VWS V14.01,2013-02-13 11:15:00,
2013-02-13 06:20:00,44.5,43.2,29.83,WSW,238,1.0,2.0,95,0.11,,-RA,0.15,VWS V14.01,2013-02-13 11:20:00,
2013-02-13 06:25:00,44.5,42.9,29.83,West,263,1.0,1.0,94,0.08,,-RA,0.15,VWS V14.01,2013-02-13 11:25:00,
2013-02-13 06:30:00,44.5,43.2,29.83,WSW,245,1.0,1.0,95,0.06,,-RA,0.15,VWS V14.01,2013-02-13 11:30:00,
2013-02-13 06:35:00,44.4,43.1,29.84,WSW,258,0.0,2.0,95,0.05,,-RA,0.15,VWS V14.01,2013-02-13 11:35:00,
2013-02-13 06:40:00,44.4,43.1,29.84,WSW,258,0.0,1.0,95,0.06,,-RA,0.16,VWS V14.01,2013-02-13 11:40:00,
2013-02-13 06:50:00,44.4,43.1,29.84,WSW,258,0.0,0.0,95,0.06,,-RA,0.17,VWS V14.01,2013-02-13 11:50:00,
2013-02-13 06:55:00,44.4,43.1,29.84,WSW,258,0.0,0.0,95,0.06,,-RA,0.18,VWS V14.01,2013-02-13 11:55:00,
2013-02-13 07:00:00,44.4,43.1,29.84,WSW,258,0.0,0.0,95,0.07,,-RA,0.19,VWS V14.01,2013-02-13 12:00:00,
2013-02-13 07:05:00,44.4,43.1,29.84,WSW,258,0.0,0.0,95,0.07,,-RA,0.19,VWS V14.01,2013-02-13 12:05:00,
2013-02-13 07:10:00,44.3,43.0,29.84,WSW,258,0.0,0.0,95,0.06,,-RA,0.19,VWS V14.01,2013-02-13 12:10:00,
2013-02-13 07:20:00,44.3,43.0,29.84,WSW,258,0.0,1.0,95,0.06,,-RA,0.20,VWS V14.01,2013-02-13 12:20:00,
2013-02-13 07:25:00,44.3,43.0,29.84,WSW,258,0.0,1.0,95,0.05,,-RA,0.20,VWS V14.01,2013-02-13 12:25:00,
2013-02-13 07:30:00,44.3,43.2,29.84,WSW,258,0.0,1.0,96,0.05,,,0.20,VWS V14.01,2013-02-13 12:30:00,
2013-02-13 07:35:00,44.3,43.2,29.84,WSW,258,0.0,1.0,96,0.05,,,0.20,VWS V14.01,2013-02-13 12:35:00,
2013-02-13 07:40:00,44.3,43.2,29.85,WSW,258,0.0,1.0,96,0.05,,,0.20,VWS V14.01,2013-02-13 12:40:00,
2013-02-13 07:45:00,44.3,43.2,29.83,ESE,117,0.0,1.0,96,0.05,,,0.21,VWS V14.01,2013-02-13 12:45:00,
2013-02-13 07:50:00,44.3,43.2,29.84,ESE,117,0.0,0.0,96,0.04,,,0.21,VWS V14.01,2013-02-13 12:50:00,
2013-02-13 07:55:00,44.3,43.2,29.84,ESE,117,0.0,1.0,96,0.04,,,0.21,VWS V14.01,2013-02-13 12:55:00,
2013-02-13 08:00:00,44.4,43.3,29.84,ESE,117,0.0,0.0,96,0.03,,,0.21,VWS V14.01,2013-02-13 13:00:00,
2013-02-13 08:05:00,44.4,43.3,29.82,ESE,117,0.0,0.0,96,0.02,,,0.21,VWS V14.01,2013-02-13 13:05:00,
2013-02-13 08:15:00,44.4,43.3,29.83,ESE,117,0.0,0.0,96,0.02,,,0.21,VWS V14.01,2013-02-13 13:15:00,
2013-02-13 08:20:00,44.4,43.3,29.83,ESE,117,0.0,1.0,96,0.02,,,0.21,VWS V14.01,2013-02-13 13:20:00,
2013-02-13 08:25:00,44.5,43.4,29.83,ESE,117,0.0,0.0,96,0.01,,,0.21,VWS V14.01,2013-02-13 13:25:00,
2013-02-13 08:30:00,44.5,43.4,29.84,ESE,117,0.0,0.0,96,0.01,,,0.21,VWS V14.01,2013-02-13 13:30:00,
2013-02-13 08:35:00,44.5,43.4,29.84,ESE,117,0.0,0.0,96,0.01,,,0.21,VWS V14.01,2013-02-13 13:35:00,
2013-02-13 08:40:00,44.5,43.4,29.84,ESE,117,0.0,1.0,96,0.01,,,0.21,VWS V14.01,2013-02-13 13:40:00,
2013-02-13 08:45:00,44.6,43.5,29.83,ESE,117,0.0,1.0,96,0.01,,,0.21,VWS V14.01,2013-02-13 13:45:00,
2013-02-13 08:50:00,44.5,43.2,29.84,ENE,64,0.0,1.0,95,0.00,,,0.21,VWS V14.01,2013-02-13 13:50:00,
2013-02-13 08:55:00,44.6,43.3,29.84,ENE,64,0.0,1.0,95,0.00,,,0.21,VWS V14.01,2013-02-13 13:55:00,
2013-02-13 09:00:00,44.7,43.4,29.83,East,100,0.0,1.0,95,0.00,,OVC032,0.21,VWS V14.01,2013-02-13 14:00:00,
2013-02-13 09:05:00,44.8,43.5,29.84,East,100,0.0,0.0,95,0.00,,OVC032,0.21,VWS V14.01,2013-02-13 14:05:00,
2013-02-13 09:10:00,44.8,43.5,29.84,East,100,0.0,0.0,95,0.00,,OVC032,0.21,VWS V14.01,2013-02-13 14:10:00,
2013-02-13 09:15:00,44.8,43.5,29.84,East,100,0.0,0.0,95,0.00,,OVC032,0.21,VWS V14.01,2013-02-13 14:15:00,
2013-02-13 09:20:00,44.8,43.5,29.81,East,100,0.0,1.0,95,0.00,,OVC032,0.21,VWS V14.01,2013-02-13 14:20:00,
2013-02-13 09:25:00,44.9,43.6,29.81,East,100,0.0,1.0,95,0.00,,OVC032,0.21,VWS V14.01,2013-02-13 14:25:00,
2013-02-13 09:30:00,44.9,43.6,29.81,NNE,26,0.0,1.0,95,0.00,,,0.21,VWS V14.01,2013-02-13 14:30:00,
2013-02-13 09:35:00,45.0,43.7,29.82,NNE,26,0.0,0.0,95,0.00,,,0.21,VWS V14.01,2013-02-13 14:35:00,
2013-02-13 09:40:00,45.0,43.7,29.81,NNE,26,0.0,1.0,95,0.00,,,0.21,VWS V14.01,2013-02-13 14:40:00,
2013-02-13 09:45:00,45.1,43.8,29.79,NNE,26,0.0,1.0,95,0.00,,,0.21,VWS V14.01,2013-02-13 14:45:00,
2013-02-13 09:50:00,45.2,44.1,29.78,NNE,27,0.0,1.0,96,0.00,,,0.21,VWS V14.01,2013-02-13 14:50:00,
2013-02-13 09:55:00,45.3,44.0,29.80,ENE,77,0.0,2.0,95,0.00,,,0.21,VWS V14.01,2013-02-13 14:55:00,
2013-02-13 10:00:00,45.5,44.4,29.80,ENE,77,0.0,1.0,96,0.00,,,0.21,VWS V14.01,2013-02-13 15:00:00,
2013-02-13 10:05:00,45.5,44.2,29.80,ENE,77,0.0,1.0,95,0.00,,,0.21,VWS V14.01,2013-02-13 15:05:00,
2013-02-13 10:10:00,45.5,44.2,29.78,NNE,18,1.0,2.0,95,0.01,,,0.22,VWS V14.01,2013-02-13 15:10:00,
2013-02-13 10:15:00,45.5,43.9,29.79,NNE,13,2.0,2.0,94,0.01,,,0.22,VWS V14.01,2013-02-13 15:15:00,
2013-02-13 10:20:00,45.5,43.9,29.79,North,4,0.0,2.0,94,0.01,,,0.22,VWS V14.01,2013-02-13 15:20:00,
2013-02-13 10:25:00,45.5,43.9,29.78,NNE,23,0.0,1.0,94,0.01,,,0.22,VWS V14.01,2013-02-13 15:25:00,
2013-02-13 10:30:00,45.5,43.9,29.77,NE,51,1.0,2.0,94,0.01,,,0.22,VWS V14.01,2013-02-13 15:30:00,
2013-02-13 10:35:00,45.5,43.9,29.78,ENE,72,0.0,1.0,94,0.01,,,0.22,VWS V14.01,2013-02-13 15:35:00,
2013-02-13 10:40:00,45.5,43.9,29.80,NNW,332,0.0,1.0,94,0.01,,,0.22,VWS V14.01,2013-02-13 15:40:00,
2013-02-13 10:45:00,45.5,43.9,29.79,NNW,333,0.0,0.0,94,0.01,,,0.22,VWS V14.01,2013-02-13 15:45:00,
2013-02-13 10:50:00,45.5,43.9,29.78,NE,50,0.0,1.0,94,0.01,,,0.22,VWS V14.01,2013-02-13 15:50:00,
2013-02-13 10:55:00,45.5,44.2,29.77,NE,53,0.0,1.0,95,0.01,,,0.22,VWS V14.01,2013-02-13 15:55:00,
2013-02-13 11:00:00,45.6,44.2,29.78,NE,52,0.0,1.0,95,0.01,,,0.22,VWS V14.01,2013-02-13 16:00:00,
2013-02-13 11:05:00,45.7,44.3,29.78,NE,52,0.0,1.0,95,0.01,,,0.22,VWS V14.01,2013-02-13 16:05:00,
2013-02-13 11:10:00,45.7,44.3,29.78,NE,52,0.0,0.0,95,0.01,,,0.22,VWS V14.01,2013-02-13 16:10:00,
2013-02-13 11:15:00,45.8,44.5,29.76,NE,52,0.0,1.0,95,0.00,,,0.22,VWS V14.01,2013-02-13 16:15:00,
2013-02-13 11:20:00,45.8,44.5,29.77,NE,52,0.0,0.0,95,0.00,,,0.22,VWS V14.01,2013-02-13 16:20:00,
2013-02-13 11:25:00,45.9,44.5,29.76,NE,52,0.0,0.0,95,0.00,,,0.22,VWS V14.01,2013-02-13 16:25:00,
2013-02-13 11:30:00,45.8,44.5,29.76,East,85,0.0,2.0,95,0.00,,,0.22,VWS V14.01,2013-02-13 16:30:00,
2013-02-13 11:35:00,45.8,44.5,29.76,ENE,73,0.0,1.0,95,0.00,,,0.22,VWS V14.01,2013-02-13 16:35:00,
2013-02-13 11:40:00,45.8,44.5,29.75,ENE,72,0.0,1.0,95,0.00,,,0.22,VWS V14.01,2013-02-13 16:40:00,
2013-02-13 11:45:00,45.9,44.5,29.75,ENE,57,0.0,1.0,95,0.00,,,0.22,VWS V14.01,2013-02-13 16:45:00,
2013-02-13 11:50:00,46.0,44.7,29.74,ENE,57,1.0,1.0,95,0.00,,,0.22,VWS V14.01,2013-02-13 16:50:00,
2013-02-13 11:55:00,46.0,44.7,29.73,ENE,78,0.0,3.0,95,0.00,,,0.22,VWS V14.01,2013-02-13 16:55:00,
2013-02-13 12:00:00,46.1,44.8,29.72,ENE,75,0.0,2.0,95,0.00,,,0.22,VWS V14.01,2013-02-13 17:00:00,
2013-02-13 12:05:00,46.1,44.5,29.71,ENE,73,0.0,3.0,94,0.00,,,0.22,VWS V14.01,2013-02-13 17:05:00,
2013-02-13 12:10:00,46.3,45.0,29.73,ENE,73,0.0,1.0,95,0.00,,,0.22,VWS V14.01,2013-02-13 17:10:00,
2013-02-13 12:15:00,46.4,45.0,29.73,ESE,107,0.0,1.0,95,0.00,,,0.22,VWS V14.01,2013-02-13 17:15:00,
2013-02-13 12:20:00,46.4,44.8,29.70,East,80,0.0,1.0,94,0.00,,,0.22,VWS V14.01,2013-02-13 17:20:00,
2013-02-13 12:25:00,46.5,44.9,29.71,East,79,0.0,1.0,94,0.00,,,0.22,VWS V14.01,2013-02-13 17:25:00,
2013-02-13 12:30:00,46.4,44.8,29.70,East,83,0.0,2.0,94,0.00,,,0.22,VWS V14.01,2013-02-13 17:30:00,
2013-02-13 12:35:00,46.5,44.9,29.69,NE,54,1.0,3.0,94,0.00,,,0.22,VWS V14.01,2013-02-13 17:35:00,
2013-02-13 12:40:00,46.5,44.9,29.70,NE,55,0.0,1.0,94,0.00,,,0.22,VWS V14.01,2013-02-13 17:40:00,
2013-02-13 12:45:00,46.6,45.0,29.70,NE,56,0.0,1.0,94,0.00,,OVC007,0.22,VWS V14.01,2013-02-13 17:45:00,
2013-02-13 12:50:00,46.7,45.1,29.67,East,88,3.0,3.0,94,0.00,,OVC007,0.22,VWS V14.01,2013-02-13 17:50:00,
2013-02-13 12:55:00,46.7,45.1,29.68,ENE,72,0.0,3.0,94,0.00,,OVC007,0.22,VWS V14.01,2013-02-13 17:55:00,
2013-02-13 13:00:00,46.8,45.2,29.69,NE,47,0.0,1.0,94,0.00,,OVC006,0.22,VWS V14.01,2013-02-13 18:00:00,
2013-02-13 13:05:00,46.8,45.2,29.67,East,100,1.0,1.0,94,0.00,,OVC006,0.22,VWS V14.01,2013-02-13 18:05:00,
2013-02-13 13:10:00,46.9,45.3,29.65,ENE,70,0.0,2.0,94,0.00,,OVC006,0.22,VWS V14.01,2013-02-13 18:10:00,
2013-02-13 13:15:00,46.9,45.3,29.67,ESE,121,0.0,3.0,94,0.00,,OVC006,0.22,VWS V14.01,2013-02-13 18:15:00,
2013-02-13 13:20:00,46.9,45.3,29.67,ESE,121,0.0,1.0,94,0.00,,OVC006,0.22,VWS V14.01,2013-02-13 18:20:00,
2013-02-13 13:25:00,46.9,45.3,29.66,ESE,106,0.0,1.0,94,0.00,,OVC006,0.22,VWS V14.01,2013-02-13 18:25:00,
2013-02-13 13:30:00,46.9,45.3,29.66,East,96,0.0,1.0,94,0.00,,,0.22,VWS V14.01,2013-02-13 18:30:00,
2013-02-13 13:35:00,46.9,45.3,29.66,East,96,0.0,1.0,94,0.00,,,0.22,VWS V14.01,2013-02-13 18:35:00,
2013-02-13 13:40:00,47.0,45.7,29.67,SSE,150,0.0,0.0,95,0.00,,,0.22,VWS V14.01,2013-02-13 18:40:00,
2013-02-13 13:45:00,46.9,45.3,29.66,ESE,103,0.0,2.0,94,0.00,,,0.22,VWS V14.01,2013-02-13 18:45:00,
2013-02-13 13:50:00,47.0,45.7,29.63,ESE,103,0.0,1.0,95,0.00,,,0.22,VWS V14.01,2013-02-13 18:50:00,
2013-02-13 13:55:00,46.9,45.5,29.64,ESE,103,0.0,1.0,95,0.00,,,0.22,VWS V14.01,2013-02-13 18:55:00,
2013-02-13 14:00:00,47.1,45.7,29.65,SSE,168,0.0,1.0,95,0.00,,,0.22,VWS V14.01,2013-02-13 19:00:00,
2013-02-13 14:05:00,47.0,45.4,29.65,ESE,119,0.0,2.0,94,0.00,,,0.22,VWS V14.01,2013-02-13 19:05:00,
2013-02-13 14:10:00,46.9,45.5,29.66,SW,233,0.0,1.0,95,0.00,,,0.22,VWS V14.01,2013-02-13 19:10:00,
2013-02-13 14:15:00,47.0,45.7,29.65,SW,233,1.0,1.0,95,0.00,,,0.22,VWS V14.01,2013-02-13 19:15:00,
2013-02-13 14:20:00,47.1,45.7,29.64,SW,233,0.0,1.0,95,0.00,,,0.22,VWS V14.01,2013-02-13 19:20:00,
2013-02-13 14:25:00,47.0,45.7,29.63,SW,233,0.0,1.0,95,0.00,,,0.22,VWS V14.01,2013-02-13 19:25:00,
2013-02-13 14:30:00,47.0,45.7,29.64,SE,143,0.0,1.0,95,0.00,,,0.22,VWS V14.01,2013-02-13 19:30:00,
2013-02-13 14:35:00,47.1,46.0,29.62,ESE,110,1.0,1.0,96,0.00,,,0.22,VWS V14.01,2013-02-13 19:35:00,
2013-02-13 14:40:00,47.1,46.0,29.64,SE,131,0.0,1.0,96,0.00,,,0.22,VWS V14.01,2013-02-13 19:40:00,
2013-02-13 14:45:00,47.2,46.1,29.64,South,187,0.0,2.0,96,0.00,,,0.22,VWS V14.01,2013-02-13 19:45:00,
2013-02-13 14:50:00,47.2,45.8,29.64,ESE,119,0.0,1.0,95,0.00,,,0.22,VWS V14.01,2013-02-13 19:50:00,
2013-02-13 14:55:00,47.2,46.1,29.65,West,259,2.0,2.0,96,0.00,,,0.22,VWS V14.01,2013-02-13 19:55:00,
2013-02-13 15:00:00,47.3,46.2,29.64,SSE,157,1.0,3.0,96,0.00,,,0.22,VWS V14.01,2013-02-13 20:00:00,
2013-02-13 15:05:00,47.3,46.2,29.64,SW,235,0.0,2.0,96,0.00,,,0.22,VWS V14.01,2013-02-13 20:05:00,
2013-02-13 15:10:00,47.4,46.3,29.64,SSE,165,0.0,2.0,96,0.00,,,0.22,VWS V14.01,2013-02-13 20:10:00,
2013-02-13 15:15:00,47.5,46.4,29.65,SSE,162,0.0,2.0,96,0.00,,,0.22,VWS V14.01,2013-02-13 20:15:00,
2013-02-13 15:20:00,47.5,46.4,29.64,SSE,160,0.0,2.0,96,0.00,,,0.22,VWS V14.01,2013-02-13 20:20:00,
2013-02-13 15:25:00,47.5,46.4,29.62,East,81,1.0,1.0,96,0.00,,,0.22,VWS V14.01,2013-02-13 20:25:00,
2013-02-13 15:30:00,47.4,46.3,29.62,SSE,158,1.0,2.0,96,0.00,,,0.22,VWS V14.01,2013-02-13 20:30:00,
2013-02-13 15:35:00,47.4,46.3,29.63,South,178,0.0,1.0,96,0.00,,,0.22,VWS V14.01,2013-02-13 20:35:00,
2013-02-13 15:40:00,47.5,46.4,29.64,WNW,283,3.0,3.0,96,0.00,,,0.22,VWS V14.01,2013-02-13 20:40:00,
2013-02-13 15:45:00,47.5,46.4,29.65,WSW,238,0.0,3.0,96,0.00,,,0.22,VWS V14.01,2013-02-13 20:45:00,
2013-02-13 15:50:00,47.5,46.4,29.64,West,266,0.0,1.0,96,0.00,,,0.22,VWS V14.01,2013-02-13 20:50:00,
2013-02-13 15:55:00,47.5,46.4,29.63,WSW,248,0.0,1.0,96,0.00,,,0.22,VWS V14.01,2013-02-13 20:55:00,
2013-02-13 16:00:00,47.6,46.5,29.64,SW,229,1.0,1.0,96,0.00,,,0.22,VWS V14.01,2013-02-13 21:00:00,
2013-02-13 16:05:00,47.6,46.5,29.65,West,269,0.0,3.0,96,0.00,,,0.22,VWS V14.01,2013-02-13 21:05:00,
2013-02-13 16:10:00,47.6,46.5,29.65,WSW,240,0.0,2.0,96,0.00,,,0.22,VWS V14.01,2013-02-13 21:10:00,
2013-02-13 16:15:00,47.5,46.4,29.65,WSW,237,0.0,1.0,96,0.00,,,0.22,VWS V14.01,2013-02-13 21:15:00,
2013-02-13 16:20:00,47.6,46.5,29.63,SW,236,0.0,1.0,96,0.00,,,0.22,VWS V14.01,2013-02-13 21:20:00,
2013-02-13 16:25:00,47.6,46.5,29.64,West,271,1.0,2.0,96,0.00,,,0.22,VWS V14.01,2013-02-13 21:25:00,
2013-02-13 16:30:00,47.6,46.5,29.64,West,269,0.0,2.0,96,0.00,,,0.22,VWS V14.01,2013-02-13 21:30:00,
2013-02-13 16:35:00,47.6,46.5,29.62,ESE,115,0.0,1.0,96,0.00,,,0.22,VWS V14.01,2013-02-13 21:35:00,
2013-02-13 16:40:00,47.7,46.6,29.63,WSW,239,0.0,1.0,96,0.00,,,0.22,VWS V14.01,2013-02-13 21:40:00,
2013-02-13 16:45:00,47.7,46.6,29.64,SW,217,1.0,2.0,96,0.00,,,0.22,VWS V14.01,2013-02-13 21:45:00,
2013-02-13 16:50:00,47.7,46.6,29.64,SE,136,1.0,3.0,96,0.00,,,0.22,VWS V14.01,2013-02-13 21:50:00,
2013-02-13 16:55:00,47.8,46.7,29.65,WNW,284,1.0,3.0,96,0.00,,,0.22,VWS V14.01,2013-02-13 21:55:00,
2013-02-13 17:00:00,47.8,46.7,29.63,West,269,1.0,3.0,96,0.00,,,0.22,VWS V14.01,2013-02-13 22:00:00,
2013-02-13 17:05:00,47.9,46.8,29.65,WNW,288,3.0,3.0,96,0.00,,,0.22,VWS V14.01,2013-02-13 22:05:00,
2013-02-13 17:10:00,47.9,46.8,29.65,West,280,2.0,4.0,96,0.00,,,0.22,VWS V14.01,2013-02-13 22:10:00,
2013-02-13 17:15:00,47.9,46.8,29.64,WSW,243,1.0,3.0,96,0.00,,,0.22,VWS V14.01,2013-02-13 22:15:00,
2013-02-13 17:20:00,47.9,46.8,29.63,West,259,0.0,2.0,96,0.00,,,0.22,VWS V14.01,2013-02-13 22:20:00,
2013-02-13 17:25:00,47.9,46.8,29.65,West,260,1.0,4.0,96,0.00,,,0.22,VWS V14.01,2013-02-13 22:25:00,
2013-02-13 17:30:00,47.9,46.8,29.66,West,260,0.0,3.0,96,0.00,,,0.22,VWS V14.01,2013-02-13 22:30:00,
2013-02-13 17:35:00,47.9,46.8,29.66,West,259,2.0,3.0,96,0.00,,,0.22,VWS V14.01,2013-02-13 22:35:00,
2013-02-13 17:40:00,48.0,46.9,29.65,WSW,253,0.0,3.0,96,0.00,,,0.22,VWS V14.01,2013-02-13 22:40:00,
2013-02-13 17:45:00,47.9,46.8,29.67,West,260,2.0,2.0,96,0.00,,,0.22,VWS V14.01,2013-02-13 22:45:00,
2013-02-13 17:50:00,48.0,46.9,29.65,SW,227,0.0,2.0,96,0.00,,,0.22,VWS V14.01,2013-02-13 22:50:00,
2013-02-13 17:55:00,48.0,46.9,29.65,West,271,1.0,2.0,96,0.00,,,0.22,VWS V14.01,2013-02-13 22:55:00,
2013-02-13 18:00:00,48.0,46.9,29.66,WSW,240,3.0,4.0,96,0.00,,,0.22,VWS V14.01,2013-02-13 23:00:00,
2013-02-13 18:05:00,48.1,47.0,29.66,West,264,0.0,4.0,96,0.00,,,0.22,VWS V14.01,2013-02-13 23:05:00,
2013-02-13 18:10:00,48.0,46.9,29.66,West,259,1.0,3.0,96,0.00,,,0.22,VWS V14.01,2013-02-13 23:10:00,
2013-02-13 18:15:00,48.0,46.9,29.67,SW,224,2.0,4.0,96,0.00,,,0.22,VWS V14.01,2013-02-13 23:15:00,
2013-02-13 18:20:00,48.1,46.7,29.67,WNW,283,3.0,5.0,95,0.00,,,0.22,VWS V14.01,2013-02-13 23:20:00,
2013-02-13 18:25:00,48.1,46.7,29.68,West,260,3.0,7.0,95,0.00,,,0.22,VWS V14.01,2013-02-13 23:25:00,
2013-02-13 18:30:00,48.2,46.6,29.67,West,271,3.0,7.0,94,0.00,,OVC013,0.22,VWS V14.01,2013-02-13 23:30:00,
2013-02-13 18:35:00,48.3,46.7,29.68,West,262,1.0,5.0,94,0.00,,OVC013,0.22,VWS V14.01,2013-02-13 23:35:00,
2013-02-13 18:40:00,48.3,46.7,29.68,West,269,0.0,6.0,94,0.00,,OVC013,0.22,VWS V14.01,2013-02-13 23:40:00,
2013-02-13 18:45:00,48.2,46.8,29.68,West,272,2.0,2.0,95,0.00,,OVC013,0.22,VWS V14.01,2013-02-13 23:45:00,
2013-02-13 18:50:00,48.2,46.6,29.68,West,268,0.0,3.0,94,0.00,,OVC013,0.22,VWS V14.01,2013-02-13 23:50:00,
2013-02-13 18:55:00,48.1,46.5,29.68,WSW,238,0.0,4.0,94,0.00,,OVC013,0.22,VWS V14.01,2013-02-13 23:55:00,
2013-02-13 19:00:00,48.1,46.5,29.68,West,271,1.0,2.0,94,0.00,,OVC013,0.22,VWS V14.01,2013-02-14 00:00:00,
2013-02-13 19:05:00,48.1,46.5,29.68,West,262,0.0,6.0,94,0.00,,OVC013,0.22,VWS V14.01,2013-02-14 00:05:00,
2013-02-13 19:10:00,48.3,46.4,29.69,WNW,290,0.0,7.0,93,0.00,,OVC013,0.22,VWS V14.01,2013-02-14 00:10:00,
2013-02-13 19:15:00,48.3,46.7,29.69,West,263,0.0,5.0,94,0.00,,OVC013,0.22,VWS V14.01,2013-02-14 00:15:00,
2013-02-13 19:20:00,48.2,46.3,29.69,WSW,257,5.0,5.0,93,0.00,,OVC013,0.22,VWS V14.01,2013-02-14 00:20:00,
2013-02-13 19:30:00,48.1,46.5,29.69,WNW,285,3.0,4.0,94,0.00,,OVC013,0.22,VWS V14.01,2013-02-14 00:30:00,
2013-02-13 19:35:00,48.2,46.3,29.69,WNW,293,1.0,5.0,93,0.00,,OVC013,0.22,VWS V14.01,2013-02-14 00:35:00,
2013-02-13 19:40:00,48.3,46.4,29.69,WNW,288,3.0,6.0,93,0.00,,OVC013,0.22,VWS V14.01,2013-02-14 00:40:00,
2013-02-13 19:45:00,48.3,46.4,29.69,SW,216,1.0,4.0,93,0.00,,OVC013,0.22,VWS V14.01,2013-02-14 00:45:00,
2013-02-13 19:50:00,48.2,46.3,29.69,WSW,257,1.0,3.0,93,0.00,,OVC013,0.22,VWS V14.01,2013-02-14 00:50:00,
2013-02-13 19:55:00,48.3,46.4,29.70,WSW,251,1.0,4.0,93,0.00,,OVC013,0.22,VWS V14.01,2013-02-14 00:55:00,
2013-02-13 20:00:00,48.3,46.4,29.70,WSW,240,2.0,3.0,93,0.00,,BKN200,0.22,VWS V14.01,2013-02-14 01:00:00,
2013-02-13 20:05:00,48.3,46.1,29.70,West,265,3.0,5.0,92,0.00,,BKN200,0.22,VWS V14.01,2013-02-14 01:05:00,
2013-02-13 20:10:00,48.3,46.1,29.70,WSW,255,1.0,7.0,92,0.00,,BKN200,0.22,VWS V14.01,2013-02-14 01:10:00,
2013-02-13 20:15:00,48.2,46.0,29.70,West,276,1.0,5.0,92,0.00,,BKN200,0.22,VWS V14.01,2013-02-14 01:15:00,
2013-02-13 20:20:00,48.1,45.9,29.71,SW,236,1.0,3.0,92,0.00,,BKN200,0.22,VWS V14.01,2013-02-14 01:20:00,
2013-02-13 20:25:00,48.0,46.1,29.72,WSW,250,3.0,4.0,93,0.00,,BKN200,0.22,VWS V14.01,2013-02-14 01:25:00,
2013-02-13 20:30:00,48.1,46.2,29.72,SW,234,1.0,3.0,93,0.00,,BKN200,0.22,VWS V14.01,2013-02-14 01:30:00,
2013-02-13 20:35:00,48.1,45.9,29.72,WNW,288,1.0,6.0,92,0.00,,BKN200,0.22,VWS V14.01,2013-02-14 01:35:00,
2013-02-13 20:40:00,48.1,45.9,29.73,West,275,0.0,3.0,92,0.00,,BKN200,0.22,VWS V14.01,2013-02-14 01:40:00,
2013-02-13 20:45:00,48.1,45.9,29.72,SW,228,1.0,6.0,92,0.00,,BKN200,0.22,VWS V14.01,2013-02-14 01:45:00,
2013-02-13 20:50:00,48.1,45.9,29.72,SW,236,4.0,5.0,92,0.00,,BKN200,0.22,VWS V14.01,2013-02-14 01:50:00,
2013-02-13 20:55:00,48.0,45.8,29.72,West,268,1.0,4.0,92,0.00,,BKN200,0.22,VWS V14.01,2013-02-14 01:55:00,
2013-02-13 21:00:00,47.9,45.7,29.73,West,266,1.0,3.0,92,0.00,,BKN250,0.22,VWS V14.01,2013-02-14 02:00:00,
2013-02-13 21:10:00,47.8,45.6,29.73,WSW,257,4.0,7.0,92,0.00,,BKN250,0.22,VWS V14.01,2013-02-14 02:10:00,
2013-02-13 21:15:00,47.9,45.7,29.74,WSW,241,1.0,6.0,92,0.00,,BKN250,0.22,VWS V14.01,2013-02-14 02:15:00,
2013-02-13 21:20:00,47.8,45.6,29.74,WSW,258,0.0,2.0,92,0.00,,BKN250,0.22,VWS V14.01,2013-02-14 02:20:00,
2013-02-13 21:25:00,47.8,45.6,29.74,WNW,283,1.0,7.0,92,0.00,,BKN250,0.22,VWS V14.01,2013-02-14 02:25:00,
2013-02-13 21:30:00,47.9,45.4,29.75,WSW,253,3.0,7.0,91,0.00,,BKN250,0.22,VWS V14.01,2013-02-14 02:30:00,
2013-02-13 21:35:00,47.8,45.3,29.74,WNW,299,0.0,4.0,91,0.00,,BKN250,0.22,VWS V14.01,2013-02-14 02:35:00,
2013-02-13 21:40:00,47.5,45.3,29.75,WNW,285,0.0,3.0,92,0.00,,BKN250,0.22,VWS V14.01,2013-02-14 02:40:00,
2013-02-13 21:45:00,47.5,45.3,29.75,WNW,285,1.0,3.0,92,0.00,,BKN250,0.22,VWS V14.01,2013-02-14 02:45:00,
2013-02-13 21:50:00,47.7,45.2,29.75,WNW,295,0.0,7.0,91,0.00,,BKN250,0.22,VWS V14.01,2013-02-14 02:50:00,
2013-02-13 21:55:00,47.5,45.0,29.75,West,264,1.0,5.0,91,0.00,,BKN250,0.22,VWS V14.01,2013-02-14 02:55:00,
2013-02-13 22:00:00,47.5,45.0,29.75,West,281,3.0,9.0,91,0.00,,BKN250,0.22,VWS V14.01,2013-02-14 03:00:00,
2013-02-13 22:05:00,47.4,44.9,29.76,West,264,1.0,3.0,91,0.00,,BKN250,0.22,VWS V14.01,2013-02-14 03:05:00,
2013-02-13 22:10:00,47.3,44.8,29.76,WSW,243,1.0,4.0,91,0.00,,BKN250,0.22,VWS V14.01,2013-02-14 03:10:00,
2013-02-13 22:15:00,47.3,44.8,29.77,WNW,285,2.0,5.0,91,0.00,,BKN250,0.22,VWS V14.01,2013-02-14 03:15:00,
2013-02-13 22:20:00,47.4,44.6,29.77,WNW,295,1.0,3.0,90,0.00,,BKN250,0.22,VWS V14.01,2013-02-14 03:20:00,
2013-02-13 22:25:00,47.3,44.2,29.77,West,261,0.0,6.0,89,0.00,,BKN250,0.22,VWS V14.01,2013-02-14 03:25:00,
2013-02-13 22:30:00,47.2,44.1,29.77,WNW,300,1.0,3.0,89,0.00,,BKN250,0.22,VWS V14.01,2013-02-14 03:30:00,
2013-02-13 22:35:00,47.3,43.9,29.77,WNW,285,0.0,2.0,88,0.00,,BKN250,0.22,VWS V14.01,2013-02-14 03:35:00,
2013-02-13 22:40:00,47.3,43.9,29.77,WNW,285,1.0,6.0,88,0.00,,BKN250,0.22,VWS V14.01,2013-02-14 03:40:00,
2013-02-13 22:45:00,47.1,43.7,29.78,NW,304,1.0,3.0,88,0.00,,BKN250,0.22,VWS V14.01,2013-02-14 03:45:00,
2013-02-13 22:50:00,46.9,43.2,29.78,WNW,302,2.0,3.0,87,0.00,,BKN250,0.22,VWS V14.01,2013-02-14 03:50:00,
2013-02-13 22:55:00,46.9,43.2,29.78,WNW,301,1.0,6.0,87,0.00,,BKN250,0.22,VWS V14.01,2013-02-14 03:55:00,
2013-02-13 23:00:00,46.9,42.9,29.79,West,263,3.0,3.0,86,0.00,,BKN250,0.22,VWS V14.01,2013-02-14 04:00:00,
2013-02-13 23:05:00,46.5,42.2,29.79,WNW,288,2.0,6.0,85,0.00,,BKN250,0.22,VWS V14.01,2013-02-14 04:05:00,
2013-02-13 23:10:00,46.3,40.2,29.80,West,260,6.0,11.0,79,0.00,,BKN250,0.22,VWS V14.01,2013-02-14 04:10:00,
2013-02-13 23:15:00,46.0,39.5,29.80,NW,307,0.0,6.0,78,0.00,,BKN250,0.22,VWS V14.01,2013-02-14 04:15:00,
2013-02-13 23:20:00,45.6,39.5,29.81,West,266,0.0,3.0,79,0.00,,BKN250,0.22,VWS V14.01,2013-02-14 04:20:00,
2013-02-13 23:25:00,45.3,39.5,29.81,West,271,0.0,1.0,80,0.00,,BKN250,0.22,VWS V14.01,2013-02-14 04:25:00,
2013-02-13 23:30:00,44.9,39.4,29.81,WSW,243,2.0,2.0,81,0.00,,BKN250,0.22,VWS V14.01,2013-02-14 04:30:00,
2013-02-13 23:35:00,44.7,38.9,29.81,West,262,0.0,7.0,80,0.00,,BKN250,0.22,VWS V14.01,2013-02-14 04:35:00,
2013-02-13 23:40:00,44.4,38.3,29.81,WNW,292,1.0,1.0,79,0.00,,BKN250,0.22,VWS V14.01,2013-02-14 04:40:00,
2013-02-13 23:45:00,44.3,37.9,29.81,WNW,303,0.0,2.0,78,0.00,,BKN250,0.22,VWS V14.01,2013-02-14 04:45:00,
2013-02-13 23:50:00,44.1,38.0,29.81,West,271,2.0,2.0,79,0.00,,BKN250,0.22,VWS V14.01,2013-02-14 04:50:00,
2013-02-13 23:55:00,43.8,37.7,29.82,West,278,0.0,3.0,79,0.00,,BKN250,0.22,VWS V14.01,2013-02-14 04:55:00,